createdAt,value
2019-02-18T00:01:13.252Z,95857.66
2019-02-18T00:03:39.899Z,95860.81
2019-02-18T00:06:06.566Z,95863.48
2019-02-18T00:08:33.226Z,95860.19
2019-02-18T00:10:59.889Z,95864.73
2019-02-18T00:13:26.653Z,95862.73
2019-02-18T00:15:53.308Z,95860.44
2019-02-18T00:18:20.034Z,95861.45
2019-02-18T00:20:46.702Z,95854.61
2019-02-18T00:23:13.408Z,95855.26
2019-02-18T00:25:40.148Z,95855.37
2019-02-18T00:28:06.790Z,95863.61
2019-02-18T00:30:33.493Z,95856.80
2019-02-18T00:33:00.139Z,95856.02
2019-02-18T00:35:26.831Z,95849.69
2019-02-18T00:37:53.491Z,95854.66
2019-02-18T00:40:20.129Z,95847.44
2019-02-18T00:42:46.837Z,95844.76
2019-02-18T00:45:13.540Z,95837.69
2019-02-18T00:47:40.247Z,95835.42
2019-02-18T00:50:06.908Z,95827.83
2019-02-18T00:52:33.626Z,95830.09
2019-02-18T00:55:00.352Z,95825.44
2019-02-18T00:57:26.977Z,95822.92
2019-02-18T00:59:53.674Z,95827.46
2019-02-18T01:02:20.323Z,95826.08
2019-02-18T01:04:47.020Z,95818.00
2019-02-18T01:07:13.724Z,95812.44
2019-02-18T01:09:40.379Z,95813.81
2019-02-18T01:12:07.030Z,95810.03
2019-02-18T01:14:33.687Z,95807.50
2019-02-18T01:17:00.358Z,95805.47
2019-02-18T01:19:27.001Z,95812.05
2019-02-18T01:21:53.713Z,95805.61
2019-02-18T01:24:20.374Z,95801.56
2019-02-18T01:26:47.027Z,95801.09
2019-02-18T01:29:13.755Z,95805.22
2019-02-18T01:31:40.411Z,95800.93
2019-02-18T01:34:07.114Z,95796.76
2019-02-18T01:36:33.804Z,95797.65
2019-02-18T01:39:00.455Z,95794.10
2019-02-18T01:41:27.148Z,95796.38
2019-02-18T01:43:53.803Z,95787.92
2019-02-18T01:46:20.464Z,95792.34
2019-02-18T01:48:47.132Z,95787.78
2019-02-18T01:51:13.792Z,95791.34
2019-02-18T01:53:40.490Z,95782.36
2019-02-18T01:56:07.148Z,95786.05
2019-02-18T01:58:33.823Z,95790.06
2019-02-18T02:01:00.528Z,95789.06
2019-02-18T02:03:27.227Z,95781.25
2019-02-18T02:05:53.927Z,95780.21
2019-02-18T02:08:20.586Z,95777.84
2019-02-18T02:10:47.258Z,95778.34
2019-02-18T02:15:40.279Z,95778.58
2019-02-18T02:18:06.932Z,95776.30
2019-02-18T02:20:33.578Z,95781.36
2019-02-18T02:23:00.274Z,95775.43
2019-02-18T02:25:26.932Z,95777.47
2019-02-18T02:27:53.644Z,95773.67
2019-02-18T02:30:20.299Z,95775.56
2019-02-18T02:32:46.974Z,95770.53
2019-02-18T02:35:13.649Z,95773.03
2019-02-18T02:37:40.329Z,95768.88
2019-02-18T02:40:07.063Z,95765.84
2019-02-18T02:42:33.706Z,95768.73
2019-02-18T02:45:00.620Z,95772.80
2019-02-18T02:47:27.051Z,95767.75
2019-02-18T02:49:53.657Z,95772.17
2019-02-18T02:52:20.318Z,95773.93
2019-02-18T02:54:46.991Z,95774.44
2019-02-18T02:57:13.651Z,95768.52
2019-02-18T02:59:40.296Z,95770.28
2019-02-18T03:02:07.002Z,95768.63
2019-02-18T03:04:33.707Z,95776.59
2019-02-18T03:07:00.358Z,95772.18
2019-02-18T03:09:27.039Z,95774.06
2019-02-18T03:11:53.727Z,95769.02
2019-02-18T03:14:20.394Z,95776.08
2019-02-18T03:16:47.087Z,95776.97
2019-02-18T03:19:13.769Z,95779.13
2019-02-18T03:21:40.451Z,95778.75
2019-02-18T03:24:07.186Z,95777.73
2019-02-18T03:26:33.831Z,95785.08
2019-02-18T03:29:00.474Z,95784.30
2019-02-18T03:31:27.134Z,95779.24
2019-02-18T03:33:53.794Z,95781.15
2019-02-18T03:36:20.481Z,95782.80
2019-02-18T03:38:47.126Z,95781.77
2019-02-18T03:41:13.829Z,95780.77
2019-02-18T03:43:40.475Z,95778.37
2019-02-18T03:46:07.141Z,95781.80
2019-02-18T03:48:33.901Z,95774.45
2019-02-18T03:51:00.535Z,95777.73
2019-02-18T03:53:27.195Z,95780.66
2019-02-18T03:55:53.858Z,95782.29
2019-02-18T03:58:20.552Z,95781.80
2019-02-18T04:00:47.210Z,95778.88
2019-02-18T04:03:13.912Z,95777.88
2019-02-18T04:05:40.566Z,95778.63
2019-02-18T04:08:07.219Z,95787.95
2019-02-18T04:10:33.926Z,95785.36
2019-02-18T04:13:00.623Z,95782.83
2019-02-18T04:15:27.277Z,95777.89
2019-02-18T04:17:53.928Z,95775.30
2019-02-18T04:20:20.659Z,95779.27
2019-02-18T04:22:47.315Z,95782.86
2019-02-18T04:25:13.979Z,95781.06
2019-02-18T04:27:40.641Z,95781.38
2019-02-18T04:30:07.311Z,95786.18
2019-02-18T04:32:33.969Z,95788.53
2019-02-18T04:35:00.733Z,95784.70
2019-02-18T04:37:27.437Z,95792.41
2019-02-18T04:39:54.090Z,95795.05
2019-02-18T04:42:20.789Z,95793.95
2019-02-18T04:44:47.509Z,95796.14
2019-02-18T04:47:14.164Z,95799.42
2019-02-18T04:49:41.032Z,95795.03
2019-02-18T04:52:07.688Z,95791.75
2019-02-18T04:54:34.404Z,95806.89
2019-02-18T04:57:01.104Z,95803.73
2019-02-18T04:59:27.765Z,95800.59
2019-02-18T05:01:54.442Z,95808.70
2019-02-18T05:04:21.105Z,95799.23
2019-02-18T05:06:47.906Z,95804.02
2019-02-18T05:09:14.680Z,95802.02
2019-02-18T05:11:41.374Z,95812.62
2019-02-18T05:14:08.032Z,95808.08
2019-02-18T05:16:34.775Z,95812.88
2019-02-18T05:19:01.371Z,95810.86
2019-02-18T05:21:28.134Z,95816.91
2019-02-18T05:23:54.809Z,95814.77
2019-02-18T05:26:21.459Z,95818.69
2019-02-18T05:28:48.195Z,95819.69
2019-02-18T05:31:14.768Z,95811.75
2019-02-18T05:33:41.432Z,95815.28
2019-02-18T05:36:08.102Z,95813.12
2019-02-18T05:38:34.751Z,95819.58
2019-02-18T05:41:01.462Z,95818.30
2019-02-18T05:43:28.163Z,95820.57
2019-02-18T05:45:54.827Z,95825.38
2019-02-18T05:48:21.495Z,95827.00
2019-02-18T05:50:48.152Z,95825.10
2019-02-18T05:53:14.805Z,95829.39
2019-02-18T05:55:41.473Z,95829.64
2019-02-18T05:58:08.116Z,95831.41
2019-02-18T06:00:34.786Z,95826.54
2019-02-18T06:03:01.454Z,95827.31
2019-02-18T06:05:28.213Z,95828.25
2019-02-18T06:07:54.936Z,95836.36
2019-02-18T06:10:21.615Z,95840.34
2019-02-18T06:12:48.278Z,95836.05
2019-02-18T06:15:15.052Z,95841.15
2019-02-18T06:17:41.721Z,95844.43
2019-02-18T06:20:08.435Z,95848.78
2019-02-18T06:22:35.148Z,95848.52
2019-02-18T06:25:01.828Z,95847.70
2019-02-18T06:27:28.488Z,95857.23
2019-02-18T06:29:55.181Z,95856.72
2019-02-18T06:32:21.869Z,95840.71
2019-02-18T06:34:48.548Z,95849.82
2019-02-18T06:37:15.232Z,95852.06
2019-02-18T06:39:42.194Z,95852.61
2019-02-18T06:42:08.655Z,95864.02
2019-02-18T06:44:35.420Z,95858.61
2019-02-18T06:47:02.085Z,95858.88
2019-02-18T06:49:28.783Z,95867.24
2019-02-18T06:51:55.533Z,95861.69
2019-02-18T06:54:22.227Z,95867.37
2019-02-18T06:56:48.889Z,95866.27
2019-02-18T06:59:15.661Z,95875.13
2019-02-18T07:01:42.356Z,95864.23
2019-02-18T07:04:09.020Z,95873.73
2019-02-18T07:06:35.704Z,95876.56
2019-02-18T07:09:02.358Z,95877.17
2019-02-18T07:11:29.030Z,95877.12
2019-02-18T07:13:55.736Z,95870.15
2019-02-18T07:16:22.549Z,95873.03
2019-02-18T07:18:49.245Z,95878.71
2019-02-18T07:21:15.913Z,95873.26
2019-02-18T07:23:42.686Z,95874.53
2019-02-18T07:26:09.402Z,95871.73
2019-02-18T07:28:36.079Z,95874.95
2019-02-18T07:31:02.737Z,95868.38
2019-02-18T07:33:29.431Z,95870.41
2019-02-18T07:35:56.079Z,95871.05
2019-02-18T07:38:22.884Z,95867.18
2019-02-18T07:40:49.532Z,95869.20
2019-02-18T07:43:16.199Z,95865.59
2019-02-18T07:45:42.891Z,95865.75
2019-02-18T07:48:09.557Z,95862.48
2019-02-18T07:50:36.273Z,95861.79
2019-02-18T07:53:03.029Z,95861.52
2019-02-18T07:55:29.701Z,95862.48
2019-02-18T07:57:56.387Z,95855.09
2019-02-18T08:00:23.097Z,95863.37
2019-02-18T08:02:49.779Z,95868.66
2019-02-18T08:05:16.475Z,95859.45
2019-02-18T08:07:43.213Z,95864.78
2019-02-18T08:10:12.416Z,95865.55
2019-02-18T08:12:36.742Z,95856.70
2019-02-18T08:15:03.463Z,95862.03
2019-02-18T08:17:30.126Z,95858.57
2019-02-18T08:19:56.833Z,95860.53
2019-02-18T08:22:23.577Z,95863.33
2019-02-18T08:24:50.321Z,95854.53
2019-02-18T08:27:17.042Z,95856.25
2019-02-18T08:29:43.715Z,95857.42
2019-02-18T08:32:10.946Z,95854.05
2019-02-18T08:34:37.067Z,95854.33
2019-02-18T08:37:03.740Z,95851.72
2019-02-18T08:39:30.477Z,95852.69
2019-02-18T08:41:57.160Z,95853.48
2019-02-18T08:44:24.966Z,95847.58
2019-02-18T08:46:51.627Z,95847.17
2019-02-18T08:49:18.439Z,95849.91
2019-02-18T08:51:45.166Z,95848.63
2019-02-18T08:54:11.827Z,95850.22
2019-02-18T08:56:38.597Z,95850.21
2019-02-18T08:59:05.249Z,95851.25
2019-02-18T09:01:31.960Z,95844.53
2019-02-18T09:03:58.613Z,95843.09
2019-02-18T09:06:25.284Z,95839.81
2019-02-18T09:08:51.944Z,95844.82
2019-02-18T09:11:18.666Z,95847.61
2019-02-18T09:13:45.342Z,95843.22
2019-02-18T09:16:12.001Z,95844.07
2019-02-18T09:18:38.706Z,95841.34
2019-02-18T09:21:05.398Z,95843.72
2019-02-18T09:23:32.147Z,95841.27
2019-02-18T09:25:58.925Z,95837.66
2019-02-18T09:28:25.679Z,95833.15
2019-02-18T09:30:52.386Z,95836.54
2019-02-18T09:33:19.043Z,95833.74
2019-02-18T09:35:45.758Z,95826.46
2019-02-18T09:38:12.430Z,95822.97
2019-02-18T09:40:45.122Z,95823.71
2019-02-18T09:43:05.901Z,95825.61
2019-02-18T09:45:32.573Z,95823.48
2019-02-18T09:47:59.269Z,95814.28
2019-02-18T09:50:26.069Z,95814.03
2019-02-18T09:52:52.735Z,95816.37
2019-02-18T09:55:19.405Z,95814.21
2019-02-18T09:57:46.084Z,95809.52
2019-02-18T10:00:12.774Z,95807.49
2019-02-18T10:02:39.462Z,95802.30
2019-02-18T10:05:06.129Z,95795.95
2019-02-18T10:07:32.788Z,95797.08
2019-02-18T10:09:59.465Z,95792.78
2019-02-18T10:12:26.131Z,95775.80
2019-02-18T10:14:52.800Z,95778.73
2019-02-18T10:17:19.492Z,95779.45
2019-02-18T10:19:46.289Z,95781.45
2019-02-18T10:22:12.952Z,95775.73
2019-02-18T10:24:50.241Z,95771.96
2019-02-18T10:27:06.319Z,95768.66
2019-02-18T10:29:33.105Z,95761.52
2019-02-18T10:31:59.809Z,95761.31
2019-02-18T10:34:28.436Z,95763.04
2019-02-18T10:36:55.086Z,95752.97
2019-02-18T10:39:21.747Z,95751.62
2019-02-18T10:41:48.475Z,95749.64
2019-02-18T10:44:15.148Z,95746.17
2019-02-18T10:46:41.856Z,95740.29
2019-02-18T10:49:18.895Z,95744.27
2019-02-18T10:51:35.441Z,95736.66
2019-02-18T10:54:02.114Z,95734.33
2019-02-18T10:56:28.794Z,95729.12
2019-02-18T10:58:55.472Z,95725.28
2019-02-18T11:01:22.132Z,95715.24
2019-02-18T11:03:48.932Z,95713.34
2019-02-18T11:06:15.609Z,95707.85
2019-02-18T11:08:42.294Z,95709.92
2019-02-18T11:11:16.645Z,95702.61
2019-02-18T11:13:35.699Z,95700.31
2019-02-18T11:16:02.395Z,95697.31
2019-02-18T11:18:29.176Z,95697.73
2019-02-18T11:20:55.843Z,95687.20
2019-02-18T11:23:22.512Z,95685.25
2019-02-18T11:25:49.187Z,95680.19
2019-02-18T11:28:15.873Z,95680.52
2019-02-18T11:30:42.538Z,95683.19
2019-02-18T11:33:09.233Z,95682.98
2019-02-18T11:35:35.946Z,95682.03
2019-02-18T11:38:02.654Z,95676.55
2019-02-18T11:40:29.407Z,95676.29
2019-02-18T11:42:56.033Z,95664.15
2019-02-18T11:45:22.726Z,95662.98
2019-02-18T11:47:49.408Z,95661.94
2019-02-18T11:50:16.088Z,95663.25
2019-02-18T11:52:43.183Z,95643.41
2019-02-18T11:55:09.844Z,95650.16
2019-02-18T11:57:36.523Z,95653.00
2019-02-18T12:00:03.189Z,95641.09
2019-02-18T12:02:29.851Z,95634.53
2019-02-18T12:04:56.526Z,95629.25
2019-02-18T12:07:23.202Z,95629.23
2019-02-18T12:09:50.946Z,95631.55
2019-02-18T12:12:17.644Z,95621.91
2019-02-18T12:14:44.406Z,95622.98
2019-02-18T12:17:20.283Z,95619.34
2019-02-18T12:19:37.798Z,95615.06
2019-02-18T12:22:04.466Z,95614.48
2019-02-18T12:24:31.163Z,95610.05
2019-02-18T12:26:57.978Z,95615.61
2019-02-18T12:29:38.838Z,95607.58
2019-02-18T12:31:51.443Z,95603.56
2019-02-18T12:34:18.154Z,95606.06
2019-02-18T12:36:44.837Z,95599.19
2019-02-18T12:39:11.519Z,95592.08
2019-02-18T12:41:47.936Z,95588.42
2019-02-18T12:44:04.864Z,95589.15
2019-02-18T12:46:31.608Z,95588.13
2019-02-18T12:48:58.334Z,95580.02
2019-02-18T12:51:25.005Z,95572.78
2019-02-18T12:53:51.692Z,95580.64
2019-02-18T12:56:18.480Z,95580.52
2019-02-18T12:58:54.489Z,95580.17
2019-02-18T13:01:11.953Z,95581.02
2019-02-18T13:03:38.644Z,95581.58
2019-02-18T13:06:05.293Z,95567.63
2019-02-18T13:08:31.967Z,95571.15
2019-02-18T13:10:58.631Z,95575.74
2019-02-18T13:13:25.334Z,95563.79
2019-02-18T13:15:52.075Z,95570.13
2019-02-18T13:18:18.878Z,95561.30
2019-02-18T13:20:45.555Z,95561.81
2019-02-18T13:23:12.301Z,95565.87
2019-02-18T13:25:41.946Z,95557.98
2019-02-18T13:28:08.491Z,95566.28
2019-02-18T13:30:32.336Z,95563.80
2019-02-18T13:32:59.088Z,95557.29
2019-02-18T13:35:25.773Z,95551.41
2019-02-18T13:37:52.532Z,95559.67
2019-02-18T13:40:19.229Z,95553.81
2019-02-18T13:42:47.083Z,95550.69
2019-02-18T13:45:13.767Z,95547.73
2019-02-18T13:47:40.436Z,95546.78
2019-02-18T13:50:07.126Z,95537.07
2019-02-18T13:52:33.821Z,95541.03
2019-02-18T13:55:01.908Z,95546.14
2019-02-18T13:57:27.191Z,95547.58
2019-02-18T13:59:53.892Z,95544.28
2019-02-18T14:02:20.592Z,95538.34
2019-02-18T14:04:47.298Z,95538.67
2019-02-18T14:07:13.957Z,95539.09
2019-02-18T14:09:40.641Z,95533.89
2019-02-18T14:12:15.669Z,95532.78
2019-02-18T14:14:33.965Z,95529.38
2019-02-18T14:17:00.644Z,95528.50
2019-02-18T14:19:27.305Z,95535.52
2019-02-18T14:21:54.077Z,95525.91
2019-02-18T14:24:20.798Z,95531.59
2019-02-18T14:26:47.435Z,95528.07
2019-02-18T14:29:14.117Z,95531.88
2019-02-18T14:31:40.784Z,95532.30
2019-02-18T14:34:07.502Z,95526.30
2019-02-18T14:36:34.193Z,95530.90
2019-02-18T14:39:00.853Z,95528.54
2019-02-18T14:41:27.541Z,95529.34
2019-02-18T14:43:55.275Z,95525.50
2019-02-18T14:46:22.071Z,95535.55
2019-02-18T14:48:48.816Z,95524.79
2019-02-18T14:51:15.487Z,95528.78
2019-02-18T14:53:42.178Z,95524.19
2019-02-18T14:56:09.878Z,95529.95
2019-02-18T14:58:36.535Z,95527.75
2019-02-18T15:01:03.193Z,95524.75
2019-02-18T15:03:29.895Z,95522.56
2019-02-18T15:05:56.539Z,95523.86
2019-02-18T15:08:23.206Z,95519.84
2019-02-18T15:10:49.984Z,95527.28
2019-02-18T15:13:16.702Z,95522.56
2019-02-18T15:15:46.492Z,95525.30
2019-02-18T15:18:13.199Z,95520.48
2019-02-18T15:20:39.876Z,95518.53
2019-02-18T15:23:06.544Z,95525.98
2019-02-18T15:25:33.219Z,95519.48
2019-02-18T15:27:59.950Z,95519.40
2019-02-18T15:30:26.628Z,95522.22
2019-02-18T15:32:53.337Z,95519.89
2019-02-18T15:35:20.060Z,95518.59
2019-02-18T15:37:46.735Z,95518.44
2019-02-18T15:40:13.442Z,95527.81
2019-02-18T15:42:42.578Z,95526.30
2019-02-18T15:45:06.761Z,95522.13
2019-02-18T15:47:33.429Z,95530.72
2019-02-18T15:50:00.311Z,95534.89
2019-02-18T15:52:26.800Z,95527.43
2019-02-18T15:54:53.534Z,95532.12
2019-02-18T15:57:20.216Z,95532.56
2019-02-18T15:59:46.868Z,95526.30
2019-02-18T16:02:13.561Z,95533.92
2019-02-18T16:04:40.244Z,95531.77
2019-02-18T16:07:06.904Z,95529.69
2019-02-18T16:09:33.579Z,95533.73
2019-02-18T16:12:00.292Z,95535.22
2019-02-18T16:14:26.938Z,95533.77
2019-02-18T16:16:53.604Z,95535.25
2019-02-18T16:19:20.282Z,95529.49
2019-02-18T16:21:46.980Z,95534.96
2019-02-18T16:24:19.971Z,95527.14
2019-02-18T16:26:40.350Z,95534.26
2019-02-18T16:29:07.019Z,95534.92
2019-02-18T16:31:33.762Z,95539.25
2019-02-18T16:34:00.568Z,95537.00
2019-02-18T16:36:27.278Z,95544.83
2019-02-18T16:38:53.982Z,95534.55
2019-02-18T16:41:20.666Z,95545.39
2019-02-18T16:43:51.411Z,95551.96
2019-02-18T16:46:17.068Z,95549.84
2019-02-18T16:48:43.713Z,95552.85
2019-02-18T16:51:10.382Z,95557.45
2019-02-18T16:53:37.035Z,95558.84
2019-02-18T16:56:03.717Z,95564.04
2019-02-18T16:58:30.543Z,95563.63
2019-02-18T17:00:57.812Z,95566.06
2019-02-18T17:03:23.890Z,95565.83
2019-02-18T17:05:50.543Z,95569.27
2019-02-18T17:08:17.318Z,95570.30
2019-02-18T17:10:43.974Z,95575.10
2019-02-18T17:13:10.628Z,95573.81
2019-02-18T17:15:37.280Z,95571.88
2019-02-18T17:18:03.950Z,95572.47
2019-02-18T17:20:30.608Z,95568.25
2019-02-18T17:22:57.310Z,95566.26
2019-02-18T17:25:24.025Z,95573.73
2019-02-18T17:27:50.688Z,95580.64
2019-02-18T17:30:17.433Z,95577.77
2019-02-18T17:32:44.094Z,95575.27
2019-02-18T17:35:12.017Z,95581.73
2019-02-18T17:37:37.426Z,95582.16
2019-02-18T17:40:04.082Z,95584.73
2019-02-18T17:42:30.746Z,95586.38
2019-02-18T17:44:57.409Z,95584.73
2019-02-18T17:47:24.070Z,95586.16
2019-02-18T17:49:50.735Z,95589.64
2019-02-18T17:52:17.401Z,95586.66
2019-02-18T17:54:44.144Z,95595.52
2019-02-18T17:57:10.854Z,95583.56
2019-02-18T17:59:37.524Z,95592.61
2019-02-18T18:02:04.161Z,95593.75
2019-02-18T18:04:30.805Z,95597.55
2019-02-18T18:06:57.635Z,95597.04
2019-02-18T18:09:24.279Z,95601.72
2019-02-18T18:11:50.978Z,95596.28
2019-02-18T18:14:17.690Z,95602.23
2019-02-18T18:16:45.728Z,95600.68
2019-02-18T18:19:10.984Z,95606.28
2019-02-18T18:21:37.663Z,95607.16
2019-02-18T18:24:04.314Z,95608.05
2019-02-18T18:26:30.964Z,95602.73
2019-02-18T18:28:57.638Z,95606.53
2019-02-18T18:31:24.288Z,95606.88
2019-02-18T18:33:50.965Z,95607.73
2019-02-18T18:36:17.670Z,95609.48
2019-02-18T18:38:44.332Z,95610.50
2019-02-18T18:41:10.982Z,95615.98
2019-02-18T18:43:37.651Z,95608.45
2019-02-18T18:46:04.317Z,95608.55
2019-02-18T18:48:30.977Z,95606.84
2019-02-18T18:50:57.666Z,95616.94
2019-02-18T18:53:24.339Z,95616.28
2019-02-18T18:55:51.008Z,95616.91
2019-02-18T18:58:17.736Z,95617.29
2019-02-18T19:00:44.352Z,95619.41
2019-02-18T19:03:11.059Z,95620.70
2019-02-18T19:05:37.742Z,95626.37
2019-02-18T19:08:04.395Z,95628.43
2019-02-18T19:10:31.054Z,95624.25
2019-02-18T19:12:57.709Z,95628.30
2019-02-18T19:15:24.417Z,95629.56
2019-02-18T19:17:51.126Z,95632.86
2019-02-18T19:20:17.796Z,95631.02
2019-02-18T19:22:44.473Z,95628.68
2019-02-18T19:25:11.170Z,95630.36
2019-02-18T19:27:37.826Z,95631.94
2019-02-18T19:30:04.477Z,95633.62
2019-02-18T19:32:31.258Z,95632.73
2019-02-18T19:34:57.943Z,95629.95
2019-02-18T19:37:24.594Z,95635.92
2019-02-18T19:39:51.300Z,95637.89
2019-02-18T19:42:17.957Z,95641.20
2019-02-18T19:44:44.620Z,95642.34
2019-02-18T19:47:11.276Z,95643.13
2019-02-18T19:49:37.942Z,95639.94
2019-02-18T19:52:04.598Z,95647.16
2019-02-18T19:54:31.265Z,95639.81
2019-02-18T19:56:57.907Z,95641.84
2019-02-18T19:59:24.569Z,95646.78
2019-02-18T20:01:51.215Z,95642.50
2019-02-18T20:04:17.883Z,95638.98
2019-02-18T20:06:44.536Z,95640.09
2019-02-18T20:09:11.195Z,95637.69
2019-02-18T20:11:37.850Z,95634.71
2019-02-18T20:14:04.554Z,95630.91
2019-02-18T20:16:31.261Z,95636.98
2019-02-18T20:18:57.920Z,95638.78
2019-02-18T20:21:24.590Z,95632.84
2019-02-18T20:23:51.237Z,95633.09
2019-02-18T20:26:17.946Z,95630.16
2019-02-18T20:28:44.608Z,95638.03
2019-02-18T20:31:11.293Z,95640.94
2019-02-18T20:33:37.980Z,95637.67
2019-02-18T20:36:04.650Z,95633.83
2019-02-18T20:38:31.313Z,95633.98
2019-02-18T20:40:57.966Z,95635.24
2019-02-18T20:43:24.627Z,95637.92
2019-02-18T20:45:51.430Z,95629.80
2019-02-18T20:48:18.091Z,95634.77
2019-02-18T20:50:44.747Z,95632.59
2019-02-18T20:53:11.524Z,95643.52
2019-02-18T20:55:38.226Z,95634.63
2019-02-18T20:58:04.929Z,95636.45
2019-02-18T21:00:31.592Z,95637.16
2019-02-18T21:02:58.302Z,95634.30
2019-02-18T21:05:24.967Z,95632.26
2019-02-18T21:07:51.636Z,95635.95
2019-02-18T21:10:18.297Z,95638.98
2019-02-18T21:12:45.056Z,95636.58
2019-02-18T21:15:11.746Z,95637.09
2019-02-18T21:17:38.412Z,95636.73
2019-02-18T21:20:05.068Z,95635.16
2019-02-18T21:22:31.730Z,95645.94
2019-02-18T21:24:58.396Z,95640.89
2019-02-18T21:27:25.085Z,95646.48
2019-02-18T21:29:51.730Z,95640.66
2019-02-18T21:32:18.407Z,95642.05
2019-02-18T21:34:45.105Z,95639.14
2019-02-18T21:37:11.768Z,95639.90
2019-02-18T21:39:38.423Z,95641.52
2019-02-18T21:42:05.110Z,95641.81
2019-02-18T21:44:31.778Z,95644.07
2019-02-18T21:46:58.436Z,95643.59
2019-02-18T21:49:25.117Z,95649.26
2019-02-18T21:51:51.786Z,95652.19
2019-02-18T21:54:18.437Z,95647.61
2019-02-18T21:56:45.147Z,95648.52
2019-02-18T21:59:11.796Z,95652.80
2019-02-18T22:01:38.464Z,95656.77
2019-02-18T22:04:05.121Z,95652.80
2019-02-18T22:06:31.826Z,95652.32
2019-02-18T22:08:58.492Z,95657.63
2019-02-18T22:11:25.134Z,95654.64
2019-02-18T22:13:51.822Z,95652.72
2019-02-18T22:16:18.498Z,95654.36
2019-02-18T22:18:45.198Z,95649.84
2019-02-18T22:21:11.856Z,95663.36
2019-02-18T22:23:38.522Z,95650.09
2019-02-18T22:26:05.284Z,95659.06
2019-02-18T22:28:31.952Z,95659.21
2019-02-18T22:30:58.613Z,95661.97
2019-02-18T22:33:25.267Z,95654.36
2019-02-18T22:35:51.919Z,95653.58
2019-02-18T22:38:18.614Z,95655.35
2019-02-18T22:40:45.283Z,95658.39
2019-02-18T22:43:11.984Z,95660.77
2019-02-18T22:45:38.642Z,95659.50
2019-02-18T22:48:05.339Z,95660.27
2019-02-18T22:50:31.992Z,95666.71
2019-02-18T22:52:58.736Z,95666.34
2019-02-18T22:55:25.746Z,95667.22
2019-02-18T22:57:52.403Z,95662.16
2019-02-18T23:00:19.052Z,95665.59
2019-02-18T23:02:45.718Z,95668.23
2019-02-18T23:05:12.412Z,95669.65
2019-02-18T23:07:39.144Z,95673.14
2019-02-18T23:10:06.843Z,95671.12
2019-02-18T23:12:33.499Z,95675.45
2019-02-18T23:15:00.269Z,95670.00
2019-02-18T23:17:26.870Z,95671.80
2019-02-18T23:19:53.515Z,95672.38
2019-02-18T23:22:20.179Z,95669.59
2019-02-18T23:24:46.829Z,95674.69
2019-02-18T23:27:13.535Z,95673.92
2019-02-18T23:29:40.193Z,95667.33
2019-02-18T23:32:06.857Z,95669.63
2019-02-18T23:34:33.517Z,95671.50
2019-02-18T23:37:00.232Z,95671.80
2019-02-18T23:39:26.883Z,95669.88
2019-02-18T23:41:53.569Z,95675.82
2019-02-18T23:44:20.228Z,95657.84
2019-02-18T23:46:46.883Z,95664.95
2019-02-18T23:49:13.590Z,95656.45
2019-02-18T23:51:40.298Z,95657.98
2019-02-18T23:54:07.020Z,95649.08
2019-02-18T23:56:33.668Z,95653.05
2019-02-18T23:59:00.311Z,95647.34
